createdAt,value
2022-11-08T00:00:00.449Z,100438.00
2022-11-08T00:02:28.296Z,100438.00
2022-11-08T00:04:56.084Z,100433.00
2022-11-08T00:07:41.239Z,100433.00
2022-11-08T00:10:28.457Z,100435.00
2022-11-08T00:13:15.145Z,100439.00
2022-11-08T00:15:42.860Z,100431.00
2022-11-08T00:18:10.607Z,100441.00
2022-11-08T00:20:38.340Z,100432.00
2022-11-08T00:23:08.491Z,100423.00
2022-11-08T00:25:36.210Z,100427.00
2022-11-08T00:28:05.525Z,100424.00
2022-11-08T00:30:33.263Z,100430.00
2022-11-08T00:33:00.945Z,100436.00
2022-11-08T00:35:28.687Z,100434.00
2022-11-08T00:37:56.407Z,100444.00
2022-11-08T00:40:24.135Z,100437.00
2022-11-08T00:42:51.899Z,100432.00
2022-11-08T00:45:21.031Z,100432.00
2022-11-08T00:47:48.780Z,100432.00
2022-11-08T00:50:16.562Z,100445.00
2022-11-08T00:52:44.293Z,100430.00
2022-11-08T00:55:12.008Z,100439.00
2022-11-08T00:57:58.384Z,100437.00
2022-11-08T01:00:28.639Z,100447.00
2022-11-08T01:03:10.321Z,100438.00
2022-11-08T01:05:38.293Z,100433.00
2022-11-08T01:08:06.176Z,100440.00
2022-11-08T01:10:33.943Z,100432.00
2022-11-08T01:13:01.691Z,100435.00
2022-11-08T01:15:35.750Z,100428.00
2022-11-08T01:18:03.548Z,100424.00
2022-11-08T01:20:31.328Z,100438.00
2022-11-08T01:22:59.198Z,100429.00
2022-11-08T01:25:27.017Z,100433.00
2022-11-08T01:27:54.729Z,100432.00
2022-11-08T01:30:22.678Z,100417.00
2022-11-08T01:32:51.905Z,100419.00
2022-11-08T01:35:19.686Z,100416.00
2022-11-08T01:37:47.395Z,100425.00
2022-11-08T01:40:15.135Z,100421.00
2022-11-08T01:42:43.104Z,100431.00
2022-11-08T01:45:12.732Z,100425.00
2022-11-08T01:47:40.512Z,100418.00
2022-11-08T01:50:13.917Z,100428.00
2022-11-08T01:52:44.590Z,100423.00
2022-11-08T01:55:17.576Z,100417.00
2022-11-08T01:57:50.297Z,100417.00
2022-11-08T02:00:18.867Z,100417.00
2022-11-08T02:02:50.864Z,100406.00
2022-11-08T02:05:26.929Z,100416.00
2022-11-08T02:07:57.801Z,100423.00
2022-11-08T02:10:30.732Z,100417.00
2022-11-08T02:13:02.541Z,100421.00
2022-11-08T02:15:32.714Z,100412.00
2022-11-08T02:18:00.852Z,100410.00
2022-11-08T02:20:30.297Z,100409.00
2022-11-08T02:23:06.133Z,100400.00
2022-11-08T02:25:35.485Z,100402.00
2022-11-08T02:28:03.369Z,100404.00
2022-11-08T02:30:34.431Z,100400.00
2022-11-08T02:33:02.276Z,100401.00
2022-11-08T02:35:30.221Z,100403.00
2022-11-08T02:37:57.976Z,100401.00
2022-11-08T02:40:25.679Z,100397.00
2022-11-08T02:42:54.764Z,100393.00
2022-11-08T02:45:22.512Z,100388.00
2022-11-08T02:47:50.247Z,100391.00
2022-11-08T02:50:18.091Z,100381.00
2022-11-08T02:52:45.789Z,100381.00
2022-11-08T02:55:13.557Z,100384.00
2022-11-08T02:57:41.283Z,100384.00
2022-11-08T03:00:12.358Z,100388.00
2022-11-08T03:02:40.148Z,100392.00
2022-11-08T03:05:08.504Z,100396.00
2022-11-08T03:07:36.343Z,100399.00
2022-11-08T03:10:04.500Z,100394.00
2022-11-08T03:12:32.268Z,100403.00
2022-11-08T03:14:59.997Z,100391.00
2022-11-08T03:17:29.145Z,100396.00
2022-11-08T03:19:57.063Z,100392.00
2022-11-08T03:22:24.806Z,100393.00
2022-11-08T03:24:52.570Z,100382.00
2022-11-08T03:27:20.759Z,100379.00
2022-11-08T03:29:48.683Z,100380.00
2022-11-08T03:32:17.396Z,100374.00
2022-11-08T03:34:46.515Z,100379.00
2022-11-08T03:37:14.230Z,100376.00
2022-11-08T03:39:42.007Z,100374.00
2022-11-08T03:42:09.825Z,100376.00
2022-11-08T03:44:37.567Z,100374.00
2022-11-08T03:47:05.429Z,100383.00
2022-11-08T03:49:33.117Z,100386.00
2022-11-08T03:52:02.427Z,100389.00
2022-11-08T03:54:30.136Z,100371.00
2022-11-08T03:56:57.846Z,100384.00
2022-11-08T03:59:25.592Z,100383.00
2022-11-08T04:01:53.702Z,100372.00
2022-11-08T04:04:21.661Z,100374.00
2022-11-08T04:06:49.358Z,100378.00
2022-11-08T04:09:21.431Z,100377.00
2022-11-08T04:12:06.588Z,100375.00
2022-11-08T04:14:52.046Z,100365.00
2022-11-08T04:17:19.755Z,100368.00
2022-11-08T04:20:05.042Z,100364.00
2022-11-08T04:22:32.796Z,100363.00
2022-11-08T04:25:01.884Z,100360.00
2022-11-08T04:27:29.627Z,100366.00
2022-11-08T04:29:57.346Z,100364.00
2022-11-08T04:32:25.523Z,100359.00
2022-11-08T04:34:53.332Z,100372.00
2022-11-08T04:37:21.051Z,100365.00
2022-11-08T04:39:48.831Z,100369.00
2022-11-08T04:42:17.919Z,100367.00
2022-11-08T04:44:45.653Z,100364.00
2022-11-08T04:47:13.388Z,100366.00
2022-11-08T04:49:41.102Z,100359.00
2022-11-08T04:52:08.840Z,100360.00
2022-11-08T04:54:36.542Z,100357.00
2022-11-08T04:57:04.334Z,100358.00
2022-11-08T04:59:33.420Z,100361.00
2022-11-08T05:02:01.582Z,100360.00
2022-11-08T05:04:29.401Z,100356.00
2022-11-08T05:06:57.163Z,100353.00
2022-11-08T05:09:24.858Z,100356.00
2022-11-08T05:11:52.622Z,100355.00
2022-11-08T05:14:20.686Z,100341.00
2022-11-08T05:16:49.820Z,100348.00
2022-11-08T05:19:38.076Z,100353.00
2022-11-08T05:22:23.144Z,100354.00
2022-11-08T05:24:50.942Z,100347.00
2022-11-08T05:27:18.730Z,100348.00
2022-11-08T05:29:46.538Z,100350.00
2022-11-08T05:32:15.615Z,100341.00
2022-11-08T05:34:43.320Z,100336.00
2022-11-08T05:37:11.499Z,100342.00
2022-11-08T05:39:39.225Z,100326.00
2022-11-08T05:42:07.156Z,100334.00
2022-11-08T05:44:35.024Z,100342.00
2022-11-08T05:47:02.716Z,100340.00
2022-11-08T05:49:31.878Z,100326.00
2022-11-08T05:52:00.190Z,100331.00
2022-11-08T05:54:27.940Z,100322.00
2022-11-08T05:56:55.645Z,100323.00
2022-11-08T05:59:23.653Z,100325.00
2022-11-08T06:01:51.517Z,100314.00
2022-11-08T06:04:19.314Z,100318.00
2022-11-08T06:06:50.793Z,100316.00
2022-11-08T06:09:18.607Z,100311.00
2022-11-08T06:11:46.721Z,100316.00
2022-11-08T06:14:14.466Z,100311.00
2022-11-08T06:16:42.159Z,100312.00
2022-11-08T06:19:09.930Z,100315.00
2022-11-08T06:21:37.750Z,100312.00
2022-11-08T06:24:07.859Z,100313.00
2022-11-08T06:26:35.816Z,100317.00
2022-11-08T06:29:03.607Z,100318.00
2022-11-08T06:31:31.403Z,100312.00
2022-11-08T06:33:59.123Z,100322.00
2022-11-08T06:36:26.867Z,100318.00
2022-11-08T06:38:55.459Z,100330.00
2022-11-08T06:41:24.711Z,100326.00
2022-11-08T06:43:52.398Z,100332.00
2022-11-08T06:46:20.090Z,100321.00
2022-11-08T06:48:48.102Z,100323.00
2022-11-08T06:51:16.000Z,100332.00
2022-11-08T06:53:43.992Z,100324.00
2022-11-08T06:56:11.830Z,100336.00
2022-11-08T06:58:41.020Z,100336.00
2022-11-08T07:01:10.472Z,100344.00
2022-11-08T07:03:38.391Z,100330.00
2022-11-08T07:06:07.235Z,100331.00
2022-11-08T07:08:36.166Z,100330.00
2022-11-08T07:11:04.655Z,100332.00
2022-11-08T07:13:32.410Z,100319.00
2022-11-08T07:16:02.312Z,100334.00
2022-11-08T07:18:30.194Z,100330.00
2022-11-08T07:21:01.566Z,100316.00
2022-11-08T07:23:29.492Z,100323.00
2022-11-08T07:25:57.296Z,100320.00
2022-11-08T07:28:25.029Z,100318.00
2022-11-08T07:30:58.086Z,100320.00
2022-11-08T07:33:27.240Z,100331.00
2022-11-08T07:35:55.101Z,100320.00
2022-11-08T07:38:23.521Z,100321.00
2022-11-08T07:40:51.528Z,100334.00
2022-11-08T07:43:19.261Z,100326.00
2022-11-08T07:45:48.190Z,100314.00
2022-11-08T07:48:15.903Z,100315.00
2022-11-08T07:50:47.178Z,100315.00
2022-11-08T07:53:15.062Z,100313.00
2022-11-08T07:55:43.036Z,100311.00
2022-11-08T07:58:12.305Z,100303.00
2022-11-08T08:00:42.704Z,100297.00
2022-11-08T08:03:13.079Z,100304.00
2022-11-08T08:05:45.268Z,100306.00
2022-11-08T08:08:14.799Z,100295.00
2022-11-08T08:10:42.694Z,100292.00
2022-11-08T08:13:10.691Z,100294.00
2022-11-08T08:15:38.444Z,100280.00
2022-11-08T08:18:07.905Z,100270.00
2022-11-08T08:20:36.074Z,100267.00
2022-11-08T08:23:03.899Z,100268.00
2022-11-08T08:25:32.998Z,100264.00
2022-11-08T08:28:02.057Z,100280.00
2022-11-08T08:30:31.660Z,100271.00
2022-11-08T08:35:54.306Z,100259.00
2022-11-08T08:38:22.465Z,100266.00
2022-11-08T08:40:52.594Z,100253.00
2022-11-08T08:43:20.857Z,100248.00
2022-11-08T08:45:49.923Z,100246.00
2022-11-08T08:48:18.278Z,100246.00
2022-11-08T08:50:46.000Z,100231.00
2022-11-08T08:53:14.215Z,100226.00
2022-11-08T08:55:42.861Z,100228.00
2022-11-08T08:58:12.770Z,100227.00
2022-11-08T09:03:28.313Z,100213.00
2022-11-08T09:05:58.255Z,100205.00
2022-11-08T09:08:26.092Z,100230.00
2022-11-08T09:10:54.871Z,100215.00
2022-11-08T09:13:26.169Z,100223.00
2022-11-08T09:15:54.239Z,100217.00
2022-11-08T09:18:22.461Z,100204.00
2022-11-08T09:20:51.146Z,100201.00
2022-11-08T09:23:19.116Z,100211.00
2022-11-08T09:25:47.012Z,100215.00
2022-11-08T09:28:14.760Z,100217.00
2022-11-08T09:30:43.861Z,100212.00
2022-11-08T09:33:11.580Z,100209.00
2022-11-08T09:35:39.849Z,100201.00
2022-11-08T09:38:08.422Z,100200.00
2022-11-08T09:40:40.853Z,100206.00
2022-11-08T09:43:25.061Z,100203.00
2022-11-08T09:45:56.086Z,100210.00
2022-11-08T09:48:28.537Z,100209.00
2022-11-08T09:50:58.425Z,100209.00
2022-11-08T09:53:34.794Z,100203.00
2022-11-08T09:56:07.181Z,100206.00
2022-11-08T09:58:37.438Z,100204.00
2022-11-08T10:01:06.662Z,100187.00
2022-11-08T10:03:34.725Z,100197.00
2022-11-08T10:06:40.066Z,100193.00
2022-11-08T10:09:22.224Z,100201.00
2022-11-08T10:12:10.647Z,100188.00
2022-11-08T10:14:53.773Z,100175.00
2022-11-08T10:17:55.680Z,100180.00
2022-11-08T10:20:35.565Z,100170.00
2022-11-08T10:23:13.402Z,100164.00
2022-11-08T10:25:46.145Z,100162.00
2022-11-08T10:28:16.631Z,100149.00
2022-11-08T10:30:49.448Z,100142.00
2022-11-08T10:33:21.697Z,100150.00
2022-11-08T10:36:01.898Z,100157.00
2022-11-08T10:38:36.960Z,100147.00
2022-11-08T10:41:11.273Z,100145.00
2022-11-08T10:43:42.989Z,100153.00
2022-11-08T10:46:24.104Z,100127.00
2022-11-08T10:48:53.376Z,100126.00
2022-11-08T10:51:21.108Z,100132.00
2022-11-08T10:53:48.805Z,100121.00
2022-11-08T10:56:16.808Z,100115.00
2022-11-08T10:58:44.768Z,100113.00
2022-11-08T11:01:17.110Z,100108.00
2022-11-08T11:03:45.393Z,100115.00
2022-11-08T11:06:27.392Z,100099.00
2022-11-08T11:08:57.125Z,100095.00
2022-11-08T11:11:28.253Z,100101.00
2022-11-08T11:14:16.458Z,100096.00
2022-11-08T11:16:55.502Z,100096.00
2022-11-08T11:19:24.489Z,100100.00
2022-11-08T11:21:57.590Z,100089.00
2022-11-08T11:24:25.986Z,100090.00
2022-11-08T11:27:05.922Z,100085.00
2022-11-08T11:29:34.829Z,100097.00
2022-11-08T11:32:24.599Z,100096.00
2022-11-08T11:34:55.920Z,100091.00
2022-11-08T11:37:31.627Z,100101.00
2022-11-08T11:40:07.466Z,100100.00
2022-11-08T11:42:46.194Z,100103.00
2022-11-08T11:45:20.046Z,100103.00
2022-11-08T11:47:53.228Z,100094.00
2022-11-08T11:50:30.155Z,100080.00
2022-11-08T11:53:00.983Z,100093.00
2022-11-08T11:55:44.292Z,100077.00
2022-11-08T11:58:25.471Z,100081.00
2022-11-08T12:00:59.109Z,100076.00
2022-11-08T12:03:47.431Z,100076.00
2022-11-08T12:06:37.276Z,100076.00
2022-11-08T12:09:20.861Z,100073.00
2022-11-08T12:11:59.850Z,100060.00
2022-11-08T12:14:56.051Z,100064.00
2022-11-08T12:17:46.822Z,100062.00
2022-11-08T12:20:31.829Z,100058.00
2022-11-08T12:23:12.258Z,100053.00
2022-11-08T12:25:49.363Z,100044.00
2022-11-08T12:28:39.823Z,100043.00
2022-11-08T12:31:20.018Z,100053.00
2022-11-08T12:34:00.874Z,100041.00
2022-11-08T12:36:37.483Z,100042.00
2022-11-08T12:39:16.988Z,100036.00
2022-11-08T12:42:00.820Z,100037.00
2022-11-08T12:44:45.069Z,100041.00
2022-11-08T12:47:24.914Z,100015.00
2022-11-08T12:50:04.204Z,100014.00
2022-11-08T12:52:48.014Z,100014.00
2022-11-08T12:55:24.844Z,100016.00
2022-11-08T12:57:57.240Z,100028.00
2022-11-08T13:00:27.418Z,100021.00
2022-11-08T13:03:03.194Z,100013.00
2022-11-08T13:05:34.831Z,100009.00
2022-11-08T13:08:08.174Z,100009.00
2022-11-08T13:10:47.605Z,100011.00
2022-11-08T13:13:32.359Z,100005.00
2022-11-08T13:16:15.886Z,100003.00
2022-11-08T13:18:49.050Z,100002.00
2022-11-08T13:21:37.906Z,100006.00
2022-11-08T13:24:45.464Z,100003.00
2022-11-08T13:27:41.052Z,99991.00
2022-11-08T13:30:35.133Z,99994.00
2022-11-08T13:33:14.354Z,100008.00
2022-11-08T13:35:50.147Z,100003.00
2022-11-08T13:38:29.149Z,100008.00
2022-11-08T13:41:14.429Z,100008.00
2022-11-08T13:43:42.659Z,100011.00
2022-11-08T13:46:49.501Z,100007.00
2022-11-08T13:49:19.893Z,100017.00
2022-11-08T13:51:48.337Z,100017.00
2022-11-08T13:54:46.932Z,100022.00
2022-11-08T13:57:20.048Z,100013.00
2022-11-08T13:59:57.445Z,100009.00
2022-11-08T14:02:47.235Z,100002.00
2022-11-08T14:05:32.445Z,100002.00
2022-11-08T14:08:27.841Z,100003.00
2022-11-08T14:11:23.260Z,100002.00
2022-11-08T14:14:24.856Z,100007.00
2022-11-08T14:17:10.922Z,100004.00
2022-11-08T14:19:42.067Z,100004.00
2022-11-08T14:22:18.323Z,99998.00
2022-11-08T14:24:47.021Z,100000.00
2022-11-08T14:27:15.617Z,100000.00
2022-11-08T14:29:43.613Z,99995.00
2022-11-08T14:32:18.804Z,100003.00
2022-11-08T14:34:48.386Z,99995.00
2022-11-08T14:37:22.774Z,99995.00
2022-11-08T14:39:51.823Z,99989.00
2022-11-08T14:42:23.353Z,99998.00
2022-11-08T14:44:54.013Z,99985.00
2022-11-08T14:47:27.360Z,99998.00
2022-11-08T14:49:56.580Z,99991.00
2022-11-08T14:52:29.553Z,99989.00
2022-11-08T14:55:05.480Z,99983.00
2022-11-08T14:57:36.460Z,99985.00
2022-11-08T15:00:11.008Z,99984.00
2022-11-08T15:02:39.354Z,99989.00
2022-11-08T15:05:30.390Z,99996.00
2022-11-08T15:07:59.460Z,99989.00
2022-11-08T15:10:28.509Z,99989.00
2022-11-08T15:12:57.295Z,99992.00
2022-11-08T15:15:27.687Z,99992.00
2022-11-08T15:18:26.073Z,99981.00
2022-11-08T15:20:57.278Z,99986.00
2022-11-08T15:23:27.332Z,99991.00
2022-11-08T15:26:00.267Z,99989.00
2022-11-08T15:28:33.829Z,99991.00
2022-11-08T15:31:04.037Z,99985.00
2022-11-08T15:33:36.151Z,99985.00
2022-11-08T15:36:13.327Z,99986.00
2022-11-08T15:38:42.802Z,99989.00
2022-11-08T15:41:31.372Z,99990.00
2022-11-08T15:44:13.737Z,99991.00
2022-11-08T15:46:41.799Z,99980.00
2022-11-08T15:49:19.113Z,99978.00
2022-11-08T15:51:48.911Z,99982.00
2022-11-08T15:54:17.066Z,99980.00
2022-11-08T15:56:45.366Z,99981.00
2022-11-08T15:59:21.302Z,99983.00
2022-11-08T16:01:56.161Z,99978.00
2022-11-08T16:04:24.222Z,99977.00
2022-11-08T16:06:53.444Z,99976.00
2022-11-08T16:09:21.373Z,99968.00
2022-11-08T16:11:49.465Z,99978.00
2022-11-08T16:14:20.921Z,99966.00
2022-11-08T16:16:48.647Z,99979.00
2022-11-08T16:19:21.385Z,99968.00
2022-11-08T16:21:49.223Z,99968.00
2022-11-08T16:24:18.846Z,99968.00
2022-11-08T16:26:47.797Z,99975.00
2022-11-08T16:29:21.718Z,99957.00
2022-11-08T16:31:50.538Z,99959.00
2022-11-08T16:34:18.343Z,99957.00
2022-11-08T16:36:47.704Z,99956.00
2022-11-08T16:39:18.605Z,99956.00
2022-11-08T16:41:46.728Z,99943.00
2022-11-08T16:44:14.583Z,99937.00
2022-11-08T16:46:42.399Z,99938.00
2022-11-08T16:49:20.917Z,99935.00
2022-11-08T16:51:49.091Z,99940.00
2022-11-08T16:54:19.847Z,99929.00
2022-11-08T16:56:47.611Z,99917.00
2022-11-08T16:59:15.716Z,99928.00
2022-11-08T17:01:44.267Z,99930.00
2022-11-08T17:04:12.063Z,99928.00
2022-11-08T17:06:39.852Z,99928.00
2022-11-08T17:09:07.766Z,99927.00
2022-11-08T17:11:38.105Z,99930.00
2022-11-08T17:14:05.811Z,99939.00
2022-11-08T17:16:33.723Z,99940.00
2022-11-08T17:19:01.468Z,99954.00
2022-11-08T17:21:45.790Z,99960.00
2022-11-08T17:24:20.864Z,99948.00
2022-11-08T17:26:51.187Z,99950.00
2022-11-08T17:29:18.946Z,99964.00
2022-11-08T17:31:46.769Z,99957.00
2022-11-08T17:34:14.548Z,99967.00
2022-11-08T17:36:42.493Z,99954.00
2022-11-08T17:39:13.983Z,99962.00
2022-11-08T17:41:41.830Z,99963.00
2022-11-08T17:44:10.944Z,99966.00
2022-11-08T17:46:38.715Z,99971.00
2022-11-08T17:49:06.437Z,99964.00
2022-11-08T17:51:34.166Z,99970.00
2022-11-08T17:54:01.925Z,99977.00
2022-11-08T17:56:29.688Z,99965.00
2022-11-08T17:58:57.429Z,99975.00
2022-11-08T18:01:26.650Z,99973.00
2022-11-08T18:03:54.647Z,99964.00
2022-11-08T18:06:22.403Z,99974.00
2022-11-08T18:08:50.123Z,99984.00
2022-11-08T18:11:17.867Z,99975.00
2022-11-08T18:13:45.629Z,99980.00
2022-11-08T18:16:15.364Z,99970.00
2022-11-08T18:18:45.783Z,99979.00
2022-11-08T18:21:13.799Z,99979.00
2022-11-08T18:23:42.106Z,99973.00
2022-11-08T18:26:10.252Z,99970.00
2022-11-08T18:28:38.853Z,99978.00
2022-11-08T18:31:07.987Z,99968.00
2022-11-08T18:33:36.962Z,99973.00
2022-11-08T18:36:07.618Z,99975.00
2022-11-08T18:38:38.954Z,99986.00
2022-11-08T18:41:07.461Z,99979.00
2022-11-08T18:43:35.481Z,99990.00
2022-11-08T18:46:04.819Z,99985.00
2022-11-08T18:48:35.557Z,99977.00
2022-11-08T18:51:03.408Z,99987.00
2022-11-08T18:53:32.864Z,99984.00
2022-11-08T18:56:00.693Z,99979.00
2022-11-08T18:58:28.563Z,99979.00
2022-11-08T19:00:57.648Z,99970.00
2022-11-08T19:03:26.317Z,99965.00
2022-11-08T19:05:54.561Z,99969.00
2022-11-08T19:08:25.098Z,99965.00
2022-11-08T19:10:55.876Z,99948.00
2022-11-08T19:13:25.727Z,99966.00
2022-11-08T19:15:57.357Z,99965.00
2022-11-08T19:18:25.501Z,99976.00
2022-11-08T19:20:57.321Z,99966.00
2022-11-08T19:23:25.845Z,99969.00
2022-11-08T19:25:59.354Z,99969.00
2022-11-08T19:28:32.659Z,99981.00
2022-11-08T19:31:01.018Z,99981.00
2022-11-08T19:33:30.875Z,99979.00
2022-11-08T19:36:02.016Z,99982.00
2022-11-08T19:38:29.776Z,99979.00
2022-11-08T19:41:02.113Z,99967.00
2022-11-08T19:43:30.964Z,99976.00
2022-11-08T19:46:03.301Z,99976.00
2022-11-08T19:48:32.790Z,99973.00
2022-11-08T19:51:02.727Z,99973.00
2022-11-08T19:53:30.741Z,99967.00
2022-11-08T19:56:05.614Z,99975.00
2022-11-08T19:58:34.593Z,99969.00
2022-11-08T20:01:07.960Z,99981.00
2022-11-08T20:03:36.043Z,99979.00
2022-11-08T20:06:03.865Z,99979.00
2022-11-08T20:08:32.440Z,99964.00
2022-11-08T20:11:00.253Z,99970.00
2022-11-08T20:13:29.375Z,99971.00
2022-11-08T20:16:08.690Z,99976.00
2022-11-08T20:18:36.439Z,99977.00
2022-11-08T20:21:05.534Z,99972.00
2022-11-08T20:23:33.477Z,99978.00
2022-11-08T20:26:01.884Z,99982.00
2022-11-08T20:28:31.157Z,99997.00
2022-11-08T20:31:03.419Z,99989.00
2022-11-08T20:33:34.091Z,99999.00
2022-11-08T20:36:04.879Z,100000.00
2022-11-08T20:38:33.931Z,99988.00
2022-11-08T20:41:02.036Z,99995.00
2022-11-08T20:43:31.728Z,99993.00
2022-11-08T20:46:02.757Z,99985.00
2022-11-08T20:48:30.520Z,99983.00
2022-11-08T20:50:59.696Z,99985.00
2022-11-08T20:53:27.971Z,99986.00
2022-11-08T20:55:58.794Z,99979.00
2022-11-08T20:58:27.503Z,99972.00
2022-11-08T21:00:58.582Z,99980.00
2022-11-08T21:03:27.929Z,99980.00
2022-11-08T21:05:57.943Z,99958.00
2022-11-08T21:08:58.705Z,99955.00
2022-11-08T21:11:15.268Z,99967.00
2022-11-08T21:13:44.656Z,99968.00
2022-11-08T21:16:42.280Z,99969.00
2022-11-08T21:19:04.331Z,99963.00
2022-11-08T21:21:33.065Z,99970.00
2022-11-08T21:24:01.009Z,99971.00
2022-11-08T21:26:28.748Z,99983.00
2022-11-08T21:28:56.489Z,99982.00
2022-11-08T21:31:25.650Z,100000.00
2022-11-08T21:33:53.536Z,99994.00
2022-11-08T21:36:23.193Z,99992.00
2022-11-08T21:38:50.901Z,100002.00
2022-11-08T21:41:19.841Z,100004.00
2022-11-08T21:43:47.739Z,100000.00
2022-11-08T21:46:18.113Z,100004.00
2022-11-08T21:48:47.605Z,100000.00
2022-11-08T21:51:16.123Z,99996.00
2022-11-08T21:53:53.601Z,100002.00
2022-11-08T21:56:22.410Z,100002.00
2022-11-08T21:58:50.178Z,100006.00
2022-11-08T22:01:18.344Z,99997.00
2022-11-08T22:03:47.920Z,99990.00
2022-11-08T22:06:15.759Z,100002.00
2022-11-08T22:08:43.584Z,100003.00
2022-11-08T22:11:11.317Z,100010.00
2022-11-08T22:13:39.074Z,100014.00
2022-11-08T22:16:07.204Z,100014.00
2022-11-08T22:19:04.061Z,100006.00
2022-11-08T22:21:40.284Z,100010.00
2022-11-08T22:24:11.099Z,100014.00
2022-11-08T22:26:39.158Z,100010.00
2022-11-08T22:29:07.360Z,100001.00
2022-11-08T22:31:35.650Z,100016.00
2022-11-08T22:34:03.854Z,100017.00
2022-11-08T22:36:33.044Z,100011.00
2022-11-08T22:39:01.204Z,100012.00
2022-11-08T22:41:29.017Z,100006.00
2022-11-08T22:43:56.824Z,100019.00
2022-11-08T22:46:24.749Z,100018.00
2022-11-08T22:48:52.450Z,100011.00
2022-11-08T22:51:20.186Z,100015.00
2022-11-08T22:53:49.576Z,100017.00
2022-11-08T22:56:17.410Z,100021.00
2022-11-08T22:58:45.168Z,100027.00
2022-11-08T23:01:14.124Z,100029.00
2022-11-08T23:03:44.917Z,100029.00
2022-11-08T23:06:12.976Z,100016.00
2022-11-08T23:08:40.771Z,100020.00
2022-11-08T23:15:15.462Z,100024.00
2022-11-08T23:17:43.178Z,100027.00
2022-11-08T23:20:29.053Z,100019.00
2022-11-08T23:23:14.448Z,100017.00
2022-11-08T23:25:42.194Z,100013.00
2022-11-08T23:28:27.599Z,100009.00
2022-11-08T23:31:19.727Z,100014.00
2022-11-08T23:33:47.439Z,100009.00
2022-11-08T23:36:15.909Z,99997.00
2022-11-08T23:38:44.352Z,100000.00
2022-11-08T23:41:38.337Z,100002.00
2022-11-08T23:44:27.725Z,99992.00
2022-11-08T23:46:58.531Z,99997.00
2022-11-08T23:49:26.772Z,100005.00
2022-11-08T23:51:55.132Z,100013.00
2022-11-08T23:54:23.124Z,100019.00
2022-11-08T23:56:51.955Z,100018.00
2022-11-08T23:59:19.705Z,100020.00
